Time;durP1;ratioP1;P1;durP2;ratioP2;P2;SDS_P1;SDS_P2;PMS_P1;PMS_P2;Temp;Humidity;BMP_temperature;BMP_pressure;BME280_temperature;BME280_humidity;BME280_pressure;Samples;Min_cycle;Max_cycle;Signal;HPM_P1;HPM_P2
2022/05/18 00:00:05;;;;;;;9.10;2.20;;;;;;;9.87;36.53;99573.22;105268;1284;99105;-67
2022/05/18 00:03:14;;;;;;;9.60;2.60;;;;;;;9.81;36.51;99577.46;104950;1285;110783;-65
2022/05/18 00:05:45;;;;;;;8.80;2.60;;;;;;;9.77;36.63;99582.47;105262;1284;99252;-67
2022/05/18 00:08:14;;;;;;;9.30;2.40;;;;;;;9.75;36.60;99584.25;105256;1284;99402;-67
2022/05/18 00:10:45;;;;;;;11.70;2.60;;;;;;;9.71;36.70;99583.40;105275;1284;113241;-66
2022/05/18 00:13:18;;;;;;;9.30;2.10;;;;;;;9.66;36.66;99587.05;105274;1284;96648;-66
2022/05/18 00:15:50;;;;;;;11.40;2.40;;;;;;;9.63;36.70;99592.74;105275;1284;108483;-65
2022/05/18 00:18:18;;;;;;;8.70;3.40;;;;;;;9.60;36.83;99596.09;105318;1284;99339;-67
2022/05/18 00:20:47;;;;;;;9.60;2.60;;;;;;;9.57;36.67;99595.77;105255;1284;96549;-65
2022/05/18 00:23:15;;;;;;;9.10;2.80;;;;;;;9.53;36.81;99599.52;105291;1284;113321;-65
2022/05/18 00:25:45;;;;;;;9.50;3.50;;;;;;;9.50;36.86;99600.25;105262;1284;96583;-66
2022/05/18 00:28:13;;;;;;;7.50;2.60;;;;;;;9.47;36.85;99602.38;105292;1284;108371;-66
2022/05/18 00:30:43;;;;;;;11.30;2.40;;;;;;;9.43;36.89;99601.70;105337;1284;96645;-66
2022/05/18 00:33:11;;;;;;;7.00;2.00;;;;;;;9.39;36.82;99609.02;105332;1284;99327;-67
2022/05/18 00:35:41;;;;;;;8.70;2.70;;;;;;;9.34;36.88;99613.21;105317;1284;112358;-66
2022/05/18 00:38:12;;;;;;;5.70;2.30;;;;;;;9.29;36.91;99614.60;105328;1284;100053;-65
2022/05/18 00:40:46;;;;;;;6.80;2.50;;;;;;;9.24;37.08;99621.56;105300;1284;108248;-66
2022/05/18 00:43:29;;;;;;;10.80;2.30;;;;;;;9.21;37.06;99626.19;105048;1286;99953;-66
2022/05/18 00:46:04;;;;;;;9.80;3.00;;;;;;;9.16;36.98;99626.83;105333;1284;99225;-65
2022/05/18 00:48:35;;;;;;;7.00;2.10;;;;;;;9.12;37.08;99633.08;105330;1284;112875;-66
2022/05/18 00:51:06;;;;;;;8.00;2.50;;;;;;;9.08;37.12;99633.65;105356;1284;96558;-66
2022/05/18 00:54:13;;;;;;;7.10;2.40;;;;;;;9.03;37.25;99638.71;105304;1284;107405;-66
2022/05/18 00:56:47;;;;;;;7.40;2.20;;;;;;;8.95;37.33;99644.27;104916;1285;99356;-65
2022/05/18 00:59:20;;;;;;;;;;;;;;;8.90;37.27;99647.59;105333;1285;99286;-67
2022/05/18 01:01:54;;;;;;;7.50;2.60;;;;;;;8.80;37.17;99647.59;105329;1284;113502;-67
2022/05/18 01:04:26;;;;;;;7.70;2.90;;;;;;;8.77;37.36;99653.77;105197;1284;97775;-65
2022/05/18 01:06:59;;;;;;;6.20;2.80;;;;;;;8.75;37.45;99651.96;105243;1284;108432;-67
2022/05/18 01:09:35;;;;;;;8.60;2.60;;;;;;;8.71;37.21;99657.09;105229;1284;99318;-65
2022/05/18 01:12:08;;;;;;;12.20;2.90;;;;;;;8.67;37.48;99665.11;105290;1284;96564;-66
2022/05/18 01:14:45;;;;;;;8.80;2.80;;;;;;;8.61;37.48;99663.16;105251;1284;113314;-68
2022/05/18 01:17:19;;;;;;;7.80;3.00;;;;;;;8.55;37.35;99668.09;105269;1284;99083;-66
2022/05/18 01:19:53;;;;;;;9.60;2.80;;;;;;;8.48;37.46;99670.71;105203;1284;108325;-67
2022/05/18 01:22:43;;;;;;;9.30;2.80;;;;;;;8.43;37.38;99673.29;105270;1284;97563;-67
2022/05/18 01:25:45;;;;;;;9.00;3.10;;;;;;;8.36;37.40;99675.77;105285;1284;99339;-67
2022/05/18 01:28:16;;;;;;;8.10;3.10;;;;;;;8.30;37.62;99678.41;105251;1284;113840;-67
2022/05/18 01:30:48;;;;;;;9.90;3.40;;;;;;;8.24;37.48;99680.66;105278;1284;97076;-68
2022/05/18 01:33:24;;;;;;;7.00;2.60;;;;;;;8.20;37.53;99684.23;105242;1285;108284;-66
2022/05/18 01:35:55;;;;;;;10.40;2.70;;;;;;;8.16;37.51;99681.77;105292;1284;99244;-67
2022/05/18 01:38:27;;;;;;;11.90;3.30;;;;;;;8.11;37.67;99689.83;105284;1284;99334;-67
2022/05/18 01:41:04;;;;;;;10.40;3.20;;;;;;;8.04;37.78;99691.57;105298;1284;113007;-67
2022/05/18 01:43:52;;;;;;;9.80;3.10;;;;;;;8.00;37.76;99692.11;105231;1284;99251;-65
2022/05/18 01:46:23;;;;;;;11.70;2.60;;;;;;;7.95;37.93;99692.78;105276;1285;107710;-65
2022/05/18 01:48:56;;;;;;;9.70;2.60;;;;;;;7.90;38.12;99696.88;105278;1285;99363;-66
2022/05/18 01:51:44;;;;;;;11.20;2.90;;;;;;;7.85;38.00;99700.30;105306;1285;99384;-68
2022/05/18 01:54:14;;;;;;;9.10;3.20;;;;;;;7.82;38.16;99699.79;105097;1285;112852;-65
2022/05/18 01:56:43;;;;;;;9.70;2.70;;;;;;;7.77;38.04;99702.70;105365;1284;98362;-66
2022/05/18 01:59:17;;;;;;;15.90;3.00;;;;;;;7.71;38.09;99710.55;105314;1284;107445;-66
2022/05/18 02:01:49;;;;;;;9.20;2.90;;;;;;;7.68;38.16;99712.70;105228;1286;99276;-66
2022/05/18 02:04:17;;;;;;;10.60;3.20;;;;;;;7.62;38.16;99716.31;105331;1284;96542;-67
2022/05/18 02:06:48;;;;;;;7.00;2.90;;;;;;;7.57;38.12;99717.09;105345;1284;112523;-66
2022/05/18 02:09:19;;;;;;;10.50;3.30;;;;;;;7.53;38.34;99723.11;105320;1285;96601;-66
2022/05/18 02:11:52;;;;;;;7.80;3.00;;;;;;;7.51;38.27;99725.66;105154;1285;108312;-66
2022/05/18 02:14:22;;;;;;;10.40;3.50;;;;;;;7.48;38.27;99729.89;105271;1284;99147;-65
2022/05/18 02:16:50;;;;;;;9.30;3.20;;;;;;;7.45;38.29;99732.16;105328;1284;96610;-67
2022/05/18 02:19:25;;;;;;;11.10;3.50;;;;;;;7.41;38.52;99740.63;105308;1285;113415;-66
2022/05/18 02:21:53;;;;;;;11.70;3.50;;;;;;;7.36;38.27;99743.90;105410;1284;99329;-66
2022/05/18 02:24:26;;;;;;;13.50;3.30;;;;;;;7.28;38.48;99744.60;105411;1284;108503;-66
2022/05/18 02:26:54;;;;;;;13.10;5.20;;;;;;;7.24;38.50;99749.71;105322;1284;99222;-66
2022/05/18 02:29:22;;;;;;;9.90;3.00;;;;;;;7.21;38.55;99751.83;105302;1284;98794;-67
2022/05/18 02:31:50;;;;;;;10.60;3.50;;;;;;;7.18;38.55;99756.36;105307;1284;113283;-67
2022/05/18 02:34:18;;;;;;;11.40;3.30;;;;;;;7.14;38.50;99760.75;105327;1284;99315;-65
2022/05/18 02:36:46;;;;;;;11.60;3.10;;;;;;;7.12;38.72;99767.59;105347;1284;108444;-65
2022/05/18 02:39:13;;;;;;;12.60;3.50;;;;;;;7.10;38.69;99773.16;105337;1284;96630;-66
2022/05/18 02:41:42;;;;;;;10.30;3.40;;;;;;;7.08;38.79;99776.07;105369;1284;99099;-66
2022/05/18 02:44:19;;;;;;;9.10;3.20;;;;;;;7.05;38.78;99780.77;105305;1284;111773;-67
2022/05/18 02:46:54;;;;;;;11.60;3.50;;;;;;;7.02;38.91;99786.76;105385;1284;96537;-66
2022/05/18 02:49:25;;;;;;;11.60;3.30;;;;;;;6.97;39.09;99793.65;105286;1284;108098;-65
2022/05/18 02:51:57;;;;;;;11.00;3.40;;;;;;;6.94;39.09;99797.35;105258;1284;96718;-67
2022/05/18 02:57:14;;;;;;;16.30;4.10;;;;;;;6.86;39.26;99804.44;105374;1284;113171;-67
2022/05/18 02:59:50;;;;;;;8.60;3.40;;;;;;;6.82;39.15;99805.84;105406;1284;99338;-67
2022/05/18 03:02:19;;;;;;;11.90;3.00;;;;;;;6.77;39.21;99808.14;105358;1284;108176;-65
2022/05/18 03:04:54;;;;;;;14.90;3.80;;;;;;;6.72;39.15;99813.32;105363;1284;99335;-66
2022/05/18 03:07:22;;;;;;;13.60;3.20;;;;;;;6.67;39.33;99816.15;105344;1284;99340;-65
2022/05/18 03:09:50;;;;;;;12.60;3.60;;;;;;;6.65;39.19;99820.86;105373;1284;113335;-66
2022/05/18 03:12:20;;;;;;;12.10;3.30;;;;;;;6.60;39.39;99822.84;105358;1284;99246;-66
2022/05/18 03:14:50;;;;;;;12.30;3.50;;;;;;;6.54;39.42;99824.16;105343;1284;108587;-64
2022/05/18 03:17:18;;;;;;;9.90;2.90;;;;;;;6.51;39.56;99825.00;105417;1284;99330;-66
2022/05/18 03:19:48;;;;;;;8.30;3.30;;;;;;;6.50;39.57;99826.64;105275;1285;96636;-66
2022/05/18 03:25:09;;;;;;;6.90;2.90;;;;;;;6.44;39.78;99834.83;105278;1285;97870;-65
2022/05/18 03:27:47;;;;;;;8.20;3.10;;;;;;;6.44;39.87;99842.41;105237;1285;107085;-64
2022/05/18 03:30:15;;;;;;;9.70;3.00;;;;;;;6.42;39.86;99844.05;105242;1285;96677;-66
2022/05/18 03:32:45;;;;;;;14.10;3.00;;;;;;;6.40;39.83;99848.35;105329;1284;99238;-65
2022/05/18 03:35:13;;;;;;;6.30;2.60;;;;;;;6.38;39.92;99849.14;105322;1284;113429;-66
2022/05/18 03:37:41;;;;;;;9.90;3.10;;;;;;;6.37;39.91;99850.07;105323;1284;99254;-65
2022/05/18 03:40:13;;;;;;;10.60;3.90;;;;;;;6.34;40.04;99848.26;105348;1284;108081;-65
2022/05/18 03:42:42;;;;;;;10.80;3.10;;;;;;;6.32;40.06;99852.58;105306;1284;97792;-66
2022/05/18 03:45:12;;;;;;;8.30;3.30;;;;;;;6.29;40.08;99854.81;102267;1284;4315551;-64
2022/05/18 03:47:42;;;;;;;11.90;3.50;;;;;;;6.29;40.12;99856.77;105393;1284;99265;-66
2022/05/18 03:50:14;;;;;;;;;;;;;;;6.28;40.24;99860.66;105348;1284;107604;-64
2022/05/18 03:52:46;;;;;;;9.60;3.10;;;;;;;6.25;40.56;99863.77;105285;1284;99238;-65
2022/05/18 03:55:18;;;;;;;11.50;3.20;;;;;;;6.28;40.39;99866.67;105307;1284;99324;-67
2022/05/18 03:57:47;;;;;;;12.60;3.00;;;;;;;6.31;40.47;99868.45;105305;1284;114390;-65
2022/05/18 04:00:20;;;;;;;18.20;3.70;;;;;;;6.32;40.55;99866.66;105259;1284;99323;-67
2022/05/18 04:02:49;;;;;;;13.50;3.30;;;;;;;6.33;40.52;99868.91;105234;1284;108440;-67
2022/05/18 04:05:21;;;;;;;9.20;3.30;;;;;;;6.35;40.63;99876.91;105302;1284;99955;-67
2022/05/18 04:07:50;;;;;;;9.50;4.50;;;;;;;6.37;40.62;99881.06;105351;1284;99250;-66
2022/05/18 04:10:21;;;;;;;9.90;3.90;;;;;;;6.40;40.76;99882.70;105341;1284;113529;-66
2022/05/18 04:12:54;;;;;;;13.10;3.50;;;;;;;6.42;40.69;99881.73;105349;1284;99336;-67
2022/05/18 04:15:23;;;;;;;12.00;3.20;;;;;;;6.45;40.79;99883.91;105342;1284;108332;-66
2022/05/18 04:17:59;;;;;;;12.40;3.80;;;;;;;6.48;40.81;99886.63;105362;1284;99348;-67
2022/05/18 04:20:27;;;;;;;;;;;;;;;6.50;40.83;99885.81;105292;1284;96562;-66
2022/05/18 04:22:59;;;;;;;13.00;3.70;;;;;;;6.51;41.20;99885.27;105409;1284;113345;-65
2022/05/18 04:25:31;;;;;;;16.70;4.00;;;;;;;6.55;41.05;99891.77;105352;1284;97811;-68
2022/05/18 04:28:00;;;;;;;12.10;3.70;;;;;;;6.60;41.12;99893.50;105258;1284;108359;-67
2022/05/18 04:30:29;;;;;;;13.30;3.70;;;;;;;6.63;41.05;99898.27;105262;1284;100137;-66
2022/05/18 04:33:04;;;;;;;11.50;3.60;;;;;;;6.68;41.26;99903.56;105363;1284;99229;-66
2022/05/18 04:35:32;;;;;;;15.90;4.20;;;;;;;6.72;41.28;99907.98;105285;1284;112842;-67
2022/05/18 04:38:00;;;;;;;13.70;4.40;;;;;;;6.77;41.35;99913.06;105218;1284;98384;-66
2022/05/18 04:40:30;;;;;;;12.30;3.80;;;;;;;6.80;41.24;99916.60;105281;1284;108425;-66
2022/05/18 04:43:04;;;;;;;17.30;5.70;;;;;;;6.84;41.40;99920.50;105230;1284;97986;-68
2022/05/18 04:45:32;;;;;;;12.90;3.90;;;;;;;6.88;41.51;99928.64;105244;1284;96826;-67
2022/05/18 04:48:04;;;;;;;10.10;3.40;;;;;;;6.91;41.43;99928.50;105278;1284;112401;-66
2022/05/18 04:50:32;;;;;;;11.60;3.10;;;;;;;6.96;41.54;99933.36;105156;1285;99350;-65
2022/05/18 04:53:02;;;;;;;8.30;2.90;;;;;;;6.98;41.67;99927.79;105282;1285;108420;-65
2022/05/18 04:55:32;;;;;;;8.60;3.10;;;;;;;7.03;41.67;99931.31;105299;1285;99361;-64
2022/05/18 04:58:02;;;;;;;13.80;3.50;;;;;;;7.08;41.56;99933.19;105291;1285;99239;-66
2022/05/18 05:00:37;;;;;;;8.90;3.10;;;;;;;7.13;41.54;99936.85;105234;1284;113443;-66
2022/05/18 05:03:05;;;;;;;7.80;3.20;;;;;;;7.18;41.82;99940.35;105347;1284;96622;-66
2022/05/18 05:05:42;;;;;;;13.40;2.90;;;;;;;7.23;41.87;99942.77;105334;1284;108312;-66
2022/05/18 05:08:10;;;;;;;5.40;2.60;;;;;;;7.28;41.88;99943.61;105365;1284;96671;-65
2022/05/18 05:10:38;;;;;;;10.70;2.90;;;;;;;7.33;41.93;99942.52;105348;1284;99369;-66
2022/05/18 05:13:10;;;;;;;10.00;2.80;;;;;;;7.39;42.13;99947.54;105300;1284;113362;-67
2022/05/18 05:15:38;;;;;;;11.20;2.70;;;;;;;7.44;41.98;99948.55;105300;1285;96581;-66
2022/05/18 05:18:09;;;;;;;10.80;3.50;;;;;;;7.49;41.94;99952.58;105353;1284;107286;-66
2022/05/18 05:20:38;;;;;;;6.90;2.90;;;;;;;7.54;42.12;99957.79;105284;1284;99316;-67
2022/05/18 05:23:07;;;;;;;6.60;2.30;;;;;;;7.60;42.02;99964.05;105313;1284;96549;-67
2022/05/18 05:25:39;;;;;;;10.20;2.90;;;;;;;7.66;42.05;99965.38;105308;1284;113421;-66
2022/05/18 05:28:09;;;;;;;10.70;2.90;;;;;;;7.72;42.22;99965.79;105330;1284;99269;-65
2022/05/18 05:30:38;;;;;;;9.70;2.70;;;;;;;7.80;42.21;99964.05;105273;1284;108397;-67
2022/05/18 05:33:07;;;;;;;8.00;2.40;;;;;;;7.85;42.26;99966.25;105275;1284;99255;-66
2022/05/18 05:35:41;;;;;;;12.00;3.00;;;;;;;7.91;42.12;99967.55;105301;1284;99256;-67
2022/05/18 05:38:09;;;;;;;10.00;2.50;;;;;;;7.98;42.41;99963.37;105271;1284;113447;-66
2022/05/18 05:40:41;;;;;;;7.10;1.90;;;;;;;8.05;42.29;99964.09;105349;1284;98876;-66
2022/05/18 05:43:16;;;;;;;7.30;2.00;;;;;;;8.12;42.24;99962.36;105266;1284;110760;-65
2022/05/18 05:45:57;;;;;;;8.30;2.00;;;;;;;8.19;42.18;99962.86;105220;1284;99283;-67
2022/05/18 05:48:30;;;;;;;6.30;1.70;;;;;;;8.26;42.10;99968.39;105254;1284;99101;-67
2022/05/18 05:51:01;;;;;;;11.20;2.30;;;;;;;8.33;42.28;99977.03;105239;1284;113585;-66
2022/05/18 05:53:33;;;;;;;7.60;2.30;;;;;;;8.41;42.33;99977.73;105748;1284;99291;-66
2022/05/18 05:56:03;;;;;;;2.40;1.60;;;;;;;8.49;42.14;99979.83;105292;1284;108438;-68
2022/05/18 05:58:33;;;;;;;6.20;1.50;;;;;;;8.57;42.35;99984.75;105215;1284;99295;-65
2022/05/18 06:01:04;;;;;;;6.60;2.60;;;;;;;8.65;42.40;99990.36;106745;1284;97106;-66
2022/05/18 06:03:33;;;;;;;5.70;1.90;;;;;;;8.74;42.35;99990.09;106820;1284;112827;-66
2022/05/18 06:06:03;;;;;;;5.40;1.50;;;;;;;8.82;42.02;99997.27;106652;1285;97266;-67
2022/05/18 06:08:33;;;;;;;7.80;2.10;;;;;;;8.92;42.33;99999.98;105950;1284;107724;-65
2022/05/18 06:11:02;;;;;;;10.60;2.00;;;;;;;9.05;42.24;100006.41;106781;1284;97347;-67
2022/05/18 06:13:34;;;;;;;10.60;2.30;;;;;;;9.17;42.34;100005.24;106121;1285;99247;-67
2022/05/18 06:16:04;;;;;;;3.30;1.90;;;;;;;9.27;42.08;100013.23;105365;1284;113166;-67
2022/05/18 06:18:34;;;;;;;6.80;1.50;;;;;;;9.36;42.22;100019.52;105339;1284;99328;-68
2022/05/18 06:21:07;;;;;;;6.90;1.80;;;;;;;9.44;42.38;100017.33;105324;1284;106612;-63
2022/05/18 06:23:40;;;;;;;8.50;2.30;;;;;;;9.53;42.36;100021.80;105287;1284;99238;-62
2022/05/18 06:26:08;;;;;;;8.60;2.00;;;;;;;9.61;42.21;100018.73;105298;1284;96960;-66
2022/05/18 06:28:41;;;;;;;19.20;3.70;;;;;;;9.70;42.32;100018.45;105439;1284;113398;-68
2022/05/18 06:31:10;;;;;;;7.00;1.60;;;;;;;9.81;42.13;100021.76;105392;1284;99234;-68
2022/05/18 06:33:43;;;;;;;;;;;;;;;9.88;42.23;100027.19;105308;1284;108243;-67
2022/05/18 06:36:12;;;;;;;6.40;2.40;;;;;;;9.93;42.27;100036.70;105296;1284;99902;-66
2022/05/18 06:38:44;;;;;;;6.60;2.60;;;;;;;10.00;42.32;100039.98;105306;1284;99328;-68
2022/05/18 06:41:21;;;;;;;6.60;2.20;;;;;;;10.09;42.38;100044.13;105296;1284;113180;-67
2022/05/18 06:44:02;;;;;;;4.90;1.90;;;;;;;10.20;42.37;100042.63;105300;1285;99246;-67
2022/05/18 06:46:36;;;;;;;6.70;1.90;;;;;;;10.34;42.41;100046.34;105127;1287;107687;-67
2022/05/18 06:49:11;;;;;;;7.10;2.40;;;;;;;10.44;42.24;100043.49;105252;1285;99258;-68
2022/05/18 06:51:42;;;;;;;4.50;1.50;;;;;;;10.53;42.26;100047.97;105278;1284;99255;-68
2022/05/18 06:54:14;;;;;;;5.70;1.40;;;;;;;10.62;42.24;100052.06;105377;1284;113459;-68
2022/05/18 06:57:08;;;;;;;6.80;1.60;;;;;;;10.72;41.99;100051.46;105322;1284;96549;-66
2022/05/18 06:59:42;;;;;;;8.10;1.80;;;;;;;11.50;41.56;100052.70;105145;1285;108837;-67
2022/05/18 07:02:10;;;;;;;9.00;1.70;;;;;;;13.93;40.13;100050.58;105287;1284;99246;-67
2022/05/18 07:04:39;;;;;;;6.70;1.80;;;;;;;16.35;40.14;100049.41;105287;1284;99261;-67
2022/05/18 07:07:22;;;;;;;3.90;1.70;;;;;;;18.84;39.98;100043.14;105162;1285;111992;-67
2022/05/18 07:09:50;;;;;;;6.10;1.60;;;;;;;20.85;39.60;100044.45;105261;1284;99360;-67
2022/05/18 07:12:18;;;;;;;4.60;1.60;;;;;;;22.67;39.36;100033.38;105275;1285;108596;-67
2022/05/18 07:14:47;;;;;;;5.50;1.60;;;;;;;24.52;39.20;100044.57;105280;1285;99329;-67
2022/05/18 07:17:20;;;;;;;10.20;1.70;;;;;;;26.05;38.59;100042.27;105226;1284;99127;-67
2022/05/18 07:19:48;;;;;;;8.10;1.80;;;;;;;27.10;38.53;100039.61;105156;1284;113364;-68
2022/05/18 07:22:16;;;;;;;3.90;1.30;;;;;;;28.11;38.51;100045.76;105107;1287;99317;-67
2022/05/18 07:24:44;;;;;;;6.50;2.10;;;;;;;29.33;38.50;100047.95;105214;1284;108459;-68
2022/05/18 07:27:12;;;;;;;1.60;1.40;;;;;;;30.53;37.96;100051.55;105242;1284;99332;-67
2022/05/18 07:29:40;;;;;;;6.20;1.50;;;;;;;31.52;37.41;100053.98;105161;1284;99239;-66
2022/05/18 07:32:09;;;;;;;5.20;2.00;;;;;;;32.44;37.39;100051.89;105207;1284;113101;-67
2022/05/18 07:34:38;;;;;;;10.90;2.00;;;;;;;32.98;36.77;100057.23;105137;1287;99796;-66
2022/05/18 07:37:07;;;;;;;4.10;1.40;;;;;;;33.38;36.05;100056.34;105168;1284;108408;-68
2022/05/18 07:39:36;;;;;;;6.20;1.20;;;;;;;33.75;35.68;100056.06;105220;1287;99481;-67
2022/05/18 07:42:05;;;;;;;8.00;1.20;;;;;;;33.88;35.24;100058.59;105144;1284;99246;-67
2022/05/18 07:44:35;;;;;;;6.10;1.50;;;;;;;34.06;34.88;100058.14;105253;1286;113658;-66
2022/05/18 07:47:06;;;;;;;10.90;1.60;;;;;;;34.47;34.61;100064.05;105329;1284;99789;-67
2022/05/18 07:49:37;;;;;;;7.20;1.20;;;;;;;34.77;33.50;100055.79;105329;1284;107766;-67
2022/05/18 07:52:07;;;;;;;12.20;1.80;;;;;;;34.81;32.72;100056.45;105208;1284;97703;-67
2022/05/18 07:54:35;;;;;;;6.30;1.40;;;;;;;34.87;32.69;100057.77;105124;1286;99766;-67
2022/05/18 07:57:10;;;;;;;7.20;1.30;;;;;;;34.98;32.15;100065.56;105193;1285;113774;-67
2022/05/18 07:59:38;;;;;;;6.40;1.60;;;;;;;35.18;31.79;100070.61;105304;1284;99222;-69
2022/05/18 08:02:07;;;;;;;7.10;1.50;;;;;;;35.30;31.26;100067.36;105269;1287;108671;-68
2022/05/18 08:04:35;;;;;;;3.60;1.50;;;;;;;35.14;30.67;100068.77;105220;1284;99325;-68
2022/05/18 08:07:04;;;;;;;5.00;1.30;;;;;;;34.89;30.38;100074.08;105264;1284;98898;-67
2022/05/18 08:15:05;;;;;;;4.00;1.10;;;;;;;34.71;30.12;100074.79;105255;1285;113384;-67
2022/05/18 08:15:10;;;;;;;6.90;1.50;;;;;;;34.30;29.18;100078.28;105163;1284;108315;-66
2022/05/18 08:17:43;;;;;;;4.90;1.30;;;;;;;34.03;28.75;100075.35;105214;1284;99325;-67
2022/05/18 08:20:21;;;;;;;7.70;1.50;;;;;;;34.11;28.67;100074.85;105220;1284;99244;-68
2022/05/18 08:22:52;;;;;;;5.60;1.30;;;;;;;34.34;28.14;100069.08;105286;1284;113506;-68
2022/05/18 08:25:20;;;;;;;2.50;0.80;;;;;;;34.39;27.86;100070.41;105172;1287;97768;-68
2022/05/18 08:27:51;;;;;;;3.30;1.30;;;;;;;34.14;27.46;100069.98;105144;1287;107687;-67
2022/05/18 08:30:23;;;;;;;2.70;1.30;;;;;;;33.87;26.68;100072.77;105057;1287;99345;-67
2022/05/18 08:32:54;;;;;;;8.90;1.50;;;;;;;33.70;26.84;100071.48;105148;1284;99256;-67
2022/05/18 08:35:23;;;;;;;5.80;1.30;;;;;;;33.59;26.40;100074.06;105285;1284;113422;-69
2022/05/18 08:37:55;;;;;;;5.70;1.30;;;;;;;33.50;26.30;100076.23;105169;1284;96787;-68
2022/05/18 08:40:23;;;;;;;4.10;1.40;;;;;;;33.77;26.15;100069.23;105344;1284;107853;-69
2022/05/18 08:42:55;;;;;;;6.50;1.90;;;;;;;33.97;26.13;100066.05;105135;1287;99350;-69
2022/05/18 08:45:26;;;;;;;;;;;;;;;34.10;25.99;100066.93;105272;1284;99233;-67
2022/05/18 08:48:16;;;;;;;7.70;1.30;;;;;;;34.44;25.80;100070.17;105149;1285;113082;-67
2022/05/18 08:50:46;;;;;;;5.20;1.50;;;;;;;34.75;25.29;100059.89;105291;1284;99343;-68
2022/05/18 08:53:31;;;;;;;4.50;1.60;;;;;;;34.96;25.30;100062.31;105142;1284;108434;-69
2022/05/18 08:56:11;;;;;;;8.50;2.00;;;;;;;35.02;25.02;100059.13;105215;1284;99365;-67
2022/05/18 08:58:46;;;;;;;4.90;1.60;;;;;;;35.18;24.76;100055.29;105281;1284;99238;-68
2022/05/18 09:01:24;;;;;;;2.80;1.00;;;;;;;35.24;24.38;100056.06;105657;1284;113416;-67
2022/05/18 09:04:21;;;;;;;7.10;1.30;;;;;;;35.16;24.34;100058.35;105241;1284;99808;-67
2022/05/18 09:07:04;;;;;;;9.30;1.70;;;;;;;35.14;24.01;100057.33;105236;1284;108473;-66
2022/05/18 09:12:36;;;;;;;4.10;1.80;;;;;;;35.00;23.56;100055.21;105236;1284;96674;-68
2022/05/18 09:15:07;;;;;;;8.40;1.70;;;;;;;34.75;23.30;100052.38;105289;1284;113405;-67
2022/05/18 09:17:40;;;;;;;;;;;;;;;34.48;22.89;100050.38;105208;1284;99114;-67
2022/05/18 09:20:23;;;;;;;6.20;1.60;;;;;;;33.86;22.77;100055.80;105170;1284;108541;-65
2022/05/18 09:22:57;;;;;;;6.20;1.70;;;;;;;33.29;22.51;100057.89;105246;1284;99211;-66
2022/05/18 09:25:28;;;;;;;7.20;1.80;;;;;;;33.27;22.65;100059.70;105099;1285;99356;-67
2022/05/18 09:28:34;;;;;;;6.10;1.50;;;;;;;33.16;22.46;100057.08;105210;1284;113255;-66
2022/05/18 09:31:26;;;;;;;8.20;1.70;;;;;;;33.21;22.20;100052.45;105126;1284;97096;-65
2022/05/18 09:34:14;;;;;;;9.90;1.90;;;;;;;32.99;21.66;100053.23;105285;1284;109501;-67
2022/05/18 09:36:58;;;;;;;5.80;1.30;;;;;;;32.60;21.51;100052.02;105203;1284;99260;-69
2022/05/18 09:39:34;;;;;;;7.00;1.70;;;;;;;32.04;21.61;100051.26;105341;1284;99220;-67
2022/05/18 09:42:09;;;;;;;7.30;1.70;;;;;;;31.78;21.59;100049.70;105290;1284;113331;-68
2022/05/18 09:44:40;;;;;;;5.20;1.50;;;;;;;31.58;21.49;100042.80;105187;1284;99846;-68
2022/05/18 09:47:15;;;;;;;5.80;1.40;;;;;;;31.25;21.11;100052.62;105124;1284;113511;-65
2022/05/18 09:49:50;;;;;;;5.70;1.90;;;;;;;30.76;20.97;100057.05;105188;1284;96681;-67
2022/05/18 09:52:24;;;;;;;6.00;1.70;;;;;;;30.45;20.90;100059.19;105362;1284;99271;-67
2022/05/18 09:54:57;;;;;;;5.80;1.70;;;;;;;30.31;20.86;100057.14;105317;1284;112697;-67
2022/05/18 09:57:37;;;;;;;8.60;1.80;;;;;;;29.81;20.60;100061.17;105357;1284;99781;-66
2022/05/18 10:00:13;;;;;;;6.20;1.60;;;;;;;29.07;20.68;100064.98;105229;1284;109040;-66
2022/05/18 10:08:36;;;;;;;8.20;2.20;;;;;;;26.89;20.70;100058.79;105263;1284;114007;-66
2022/05/18 10:11:15;;;;;;;6.30;2.30;;;;;;;26.34;20.43;100054.33;105332;1283;99237;-68
2022/05/18 10:14:14;;;;;;;5.00;1.90;;;;;;;25.77;20.39;100056.21;105170;1285;108192;-70
2022/05/18 10:17:04;;;;;;;5.50;1.70;;;;;;;25.17;20.35;100060.89;105134;1284;97354;-70
2022/05/18 10:19:44;;;;;;;11.70;2.20;;;;;;;24.61;20.35;100057.67;105228;1284;97870;-67
2022/05/18 10:22:24;;;;;;;4.40;1.70;;;;;;;24.22;20.27;100059.77;105283;1284;113351;-69
2022/05/18 10:25:09;;;;;;;7.10;1.80;;;;;;;23.74;20.01;100064.77;105168;1284;98493;-66
2022/05/18 10:27:44;;;;;;;4.50;1.60;;;;;;;23.06;19.96;100059.44;105346;1284;107678;-67
2022/05/18 10:30:28;;;;;;;16.30;2.30;;;;;;;22.51;19.92;100062.13;105257;1285;97968;-67
2022/05/18 10:33:34;;;;;;;11.20;2.20;;;;;;;22.22;20.12;100057.03;105230;1285;96767;-68
2022/05/18 10:36:11;;;;;;;5.10;1.60;;;;;;;21.83;20.18;100056.08;104912;1283;113608;-68
2022/05/18 10:38:57;;;;;;;4.80;1.50;;;;;;;21.67;20.22;100053.85;105144;1284;99203;-66
2022/05/18 10:41:37;;;;;;;10.70;2.20;;;;;;;21.46;19.98;100053.69;105126;1285;107862;-68
2022/05/18 10:44:16;;;;;;;7.00;2.20;;;;;;;21.10;20.16;100052.44;105319;1284;98360;-68
2022/05/18 10:46:51;;;;;;;3.90;1.80;;;;;;;20.88;20.13;100048.15;105339;1284;99413;-66
2022/05/18 10:49:34;;;;;;;7.00;1.40;;;;;;;20.69;20.24;100047.88;105272;1284;112754;-64
2022/05/18 10:52:19;;;;;;;7.50;1.60;;;;;;;20.59;20.21;100040.70;105224;1284;99254;-67
2022/05/18 10:55:01;;;;;;;5.70;1.70;;;;;;;20.45;20.16;100039.59;105081;1285;107802;-66
2022/05/18 10:57:34;;;;;;;5.50;1.80;;;;;;;20.34;20.33;100039.22;105249;1284;99701;-66
2022/05/18 11:00:13;;;;;;;7.70;1.50;;;;;;;20.30;20.37;100041.47;105214;1284;99223;-66
2022/05/18 11:02:59;;;;;;;8.00;1.80;;;;;;;20.25;20.36;100037.76;105341;1284;114309;-64
2022/05/18 11:05:33;;;;;;;3.10;1.40;;;;;;;20.15;20.31;100027.18;105280;1284;99284;-66
2022/05/18 11:08:14;;;;;;;12.20;2.20;;;;;;;20.00;20.41;100036.75;105336;1284;106720;-64
2022/05/18 11:11:04;;;;;;;5.00;1.70;;;;;;;19.98;20.54;100028.09;105320;1284;99361;-66
2022/05/18 11:13:37;;;;;;;5.90;1.60;;;;;;;20.01;20.57;100030.19;105136;1285;99789;-68
2022/05/18 11:16:21;;;;;;;6.70;1.80;;;;;;;19.92;20.44;100030.80;105198;1285;113443;-66
2022/05/18 11:19:21;;;;;;;2.70;1.30;;;;;;;19.73;20.50;100028.52;105260;1284;99207;-65
2022/05/18 11:22:17;;;;;;;3.50;1.20;;;;;;;19.63;20.61;100026.21;105106;1284;108447;-66
2022/05/18 11:25:06;;;;;;;10.00;2.00;;;;;;;19.59;20.72;100024.38;105170;1284;96677;-66
2022/05/18 11:28:38;;;;;;;9.00;1.60;;;;;;;19.67;20.84;100020.94;105295;1284;99256;-68
2022/05/18 11:31:25;;;;;;;3.80;1.30;;;;;;;19.64;20.73;100026.08;105343;1284;114759;-67
2022/05/18 11:34:04;;;;;;;7.90;1.80;;;;;;;19.53;20.92;100020.33;105352;1284;99348;-68
2022/05/18 11:36:51;;;;;;;6.80;1.40;;;;;;;19.55;21.09;100016.05;105233;1284;108442;-68
2022/05/18 11:39:58;;;;;;;8.10;1.70;;;;;;;19.61;21.05;100016.84;105273;1284;99406;-66
2022/05/18 11:42:55;;;;;;;5.80;2.00;;;;;;;19.57;20.99;100018.54;105221;1284;99241;-65
2022/05/18 11:45:47;;;;;;;5.90;1.50;;;;;;;19.57;21.40;100017.29;105014;1287;113201;-66
2022/05/18 11:48:41;;;;;;;5.60;2.10;;;;;;;19.67;21.24;100010.72;105251;1284;99336;-64
2022/05/18 11:51:32;;;;;;;3.20;1.40;;;;;;;19.61;21.01;100009.29;105288;1284;108616;-65
2022/05/18 11:54:09;;;;;;;1.80;1.30;;;;;;;19.50;21.49;100010.71;105210;1284;100011;-67
2022/05/18 11:57:15;;;;;;;5.40;1.70;;;;;;;19.53;21.33;100014.89;105126;1284;99535;-67
2022/05/18 12:00:00;;;;;;;7.80;1.70;;;;;;;19.52;21.24;100015.17;105110;1284;113374;-67
2022/05/18 12:02:40;;;;;;;5.20;1.70;;;;;;;19.57;21.47;100010.44;105264;1284;99954;-66
2022/05/18 12:05:09;;;;;;;6.50;1.80;;;;;;;19.67;21.71;100013.94;105263;1284;107701;-66
2022/05/18 12:08:14;;;;;;;8.50;1.50;;;;;;;19.73;21.32;100014.14;105281;1284;96697;-66
2022/05/18 12:10:53;;;;;;;6.10;1.30;;;;;;;19.60;21.38;100019.66;105308;1284;97792;-66
2022/05/18 12:13:30;;;;;;;3.90;1.50;;;;;;;19.54;21.53;100021.30;105174;1284;113383;-66